Aviation Digital Data Service (ADDS)

Output produced by METARs form (1846 UTC 19 April 2019)
found at http://www.aviationweather.gov/metar/data/
 
METAR text: OAKN 191758Z 05002KT 9999 FEW200 22/09 A2993 RMK AO2A SLP087 WND DATA ESTMD Q1014 PA3284 DA4835 T02170090 10296 20216 51006
Conditions at: OAKN (KANDAHAR INTL AR, AF) observed 1758 UTC 19 April 2019
Temperature: 21.7°C (71°F)
Dewpoint: 9.0°C (48°F) [RH = 44%]
Pressure (altimeter): 29.93 inches Hg (1013.6 mb)
[Sea-level pressure: 1008.7 mb]
Winds: from the NE (50 degrees) at 2 MPH (2 knots; 1.0 m/s)
Visibility: 6 or more miles (10+ km)
Ceiling: at least 12,000 feet AGL
Clouds: few clouds at 20000 feet AGL
Weather: no significant weather observed at this time

METAR text: OAKN 191655Z 10003KT 9999 FEW200 24/08 A2993 RMK AO2A SLP087 WND DATA ESTMD Q1014 PA3285 DA5071 T02370075
Conditions at: OAKN (KANDAHAR INTL AR, AF) observed 1655 UTC 19 April 2019
Temperature: 23.7°C (75°F)
Dewpoint: 7.5°C (46°F) [RH = 35%]
Pressure (altimeter): 29.93 inches Hg (1013.6 mb)
[Sea-level pressure: 1008.7 mb]
Winds: from the E (100 degrees) at 3 MPH (3 knots; 1.5 m/s)
Visibility: 6 or more miles (10+ km)
Ceiling: at least 12,000 feet AGL
Clouds: few clouds at 20000 feet AGL
Weather: no significant weather observed at this time

METAR text: OAKN 191554Z 00000KT 9999 CLR 25/07 A2993 RMK AO2A SLP089 WND DATA ESTMD Q1013 PA3287 DA5256 T02540069
Conditions at: OAKN (KANDAHAR INTL AR, AF) observed 1554 UTC 19 April 2019
Temperature: 25.4°C (78°F)
Dewpoint: 6.9°C (44°F) [RH = 31%]
Pressure (altimeter): 29.93 inches Hg (1013.6 mb)
[Sea-level pressure: 1008.9 mb]
Winds: calm
Visibility: 6 or more miles (10+ km)
Ceiling: at least 12,000 feet AGL
Clouds: sky clear below 12,000 feet AGL
Weather: no significant weather observed at this time

METAR text: OAKN 191456Z 00000KT 9999 CLR 26/05 A2991 RMK AO2A SLP083 WND DATA ESTMD Q1013 PA3301 DA5328 T02590047
Conditions at: OAKN (KANDAHAR INTL AR, AF) observed 1456 UTC 19 April 2019
Temperature: 25.9°C (79°F)
Dewpoint: 4.7°C (40°F) [RH = 26%]
Pressure (altimeter): 29.91 inches Hg (1013.0 mb)
[Sea-level pressure: 1008.3 mb]
Winds: calm
Visibility: 6 or more miles (10+ km)
Ceiling: at least 12,000 feet AGL
Clouds: sky clear below 12,000 feet AGL
Weather: no significant weather observed at this time

METAR text: OAKN 191356Z 00000KT 9999 CLR 27/04 A2991 RMK AO2A SLP083 WND DATA ESTMD Q1013 PA3304 DA5468 T02710044
Conditions at: OAKN (KANDAHAR INTL AR, AF) observed 1356 UTC 19 April 2019
Temperature: 27.1°C (81°F)
Dewpoint: 4.4°C (40°F) [RH = 23%]
Pressure (altimeter): 29.91 inches Hg (1013.0 mb)
[Sea-level pressure: 1008.3 mb]
Winds: calm
Visibility: 6 or more miles (10+ km)
Ceiling: at least 12,000 feet AGL
Clouds: sky clear below 12,000 feet AGL
Weather: no significant weather observed at this time

METAR text: OAKN 191259Z VRB03KT 9999 CLR 29/04 A2991 RMK AO2A SLP083 WND DATA ESTMD Q1012 PA3314 DA5733 T02870043
Conditions at: OAKN (KANDAHAR INTL AR, AF) observed 1259 UTC 19 April 2019
Temperature: 28.7°C (84°F)
Dewpoint: 4.3°C (40°F) [RH = 21%]
Pressure (altimeter): 29.91 inches Hg (1013.0 mb)
[Sea-level pressure: 1008.3 mb]
Winds: variable direction winds at 3 MPH (3 knots; 1.5 m/s)
Visibility: 6 or more miles (10+ km)
Ceiling: at least 12,000 feet AGL
Clouds: sky clear below 12,000 feet AGL
Weather: no significant weather observed at this time

METAR text: OAKN 191156Z VRB06KT 9999 CLR 30/03 A2992 RMK AO2A SLP085 WND DATA ESTMD Q1014 PA3298 DA5723 T02960031 10300 20251
Conditions at: OAKN (KANDAHAR INTL AR, AF) observed 1156 UTC 19 April 2019
Temperature: 29.6°C (85°F)
Dewpoint: 3.1°C (38°F) [RH = 18%]
Pressure (altimeter): 29.92 inches Hg (1013.3 mb)
[Sea-level pressure: 1008.5 mb]
Winds: variable direction winds at 7 MPH (6 knots; 3.1 m/s)
Visibility: 6 or more miles (10+ km)
Ceiling: at least 12,000 feet AGL
Clouds: sky clear below 12,000 feet AGL
Weather: no significant weather observed at this time

METAR text: OAKN 191055Z 27005KT 9999 SCT230 30/M01 A2993 RMK AO2A SLP089 WND DATA ESTMD Q1013 PA3296 DA5768 T02951006
Conditions at: OAKN (KANDAHAR INTL AR, AF) observed 1055 UTC 19 April 2019
Temperature: 29.5°C (85°F)
Dewpoint: -0.6°C (31°F) [RH = 14%]
Pressure (altimeter): 29.93 inches Hg (1013.6 mb)
[Sea-level pressure: 1008.9 mb]
Winds: from the W (270 degrees) at 6 MPH (5 knots; 2.6 m/s)
Visibility: 6 or more miles (10+ km)
Ceiling: at least 12,000 feet AGL
Clouds: scattered clouds at 23000 feet AGL
Weather: no significant weather observed at this time

METAR text: OAKN 190956Z VRB05KT 9999 CLR 30/M01 A2995 RMK AO2A SLP096 WND DATA ESTMD Q1014 PA3275 DA5686 T02951009
Conditions at: OAKN (KANDAHAR INTL AR, AF) observed 0956 UTC 19 April 2019
Temperature: 29.5°C (85°F)
Dewpoint: -0.9°C (30°F) [RH = 14%]
Pressure (altimeter): 29.95 inches Hg (1014.3 mb)
[Sea-level pressure: 1009.6 mb]
Winds: variable direction winds at 6 MPH (5 knots; 2.6 m/s)
Visibility: 6 or more miles (10+ km)
Ceiling: at least 12,000 feet AGL
Clouds: sky clear below 12,000 feet AGL
Weather: no significant weather observed at this time

METAR text: OAKN 190856Z 23006KT 9999 SCT250 29/04 A2997 RMK AO2A SLP102 WND DATA ESTMD Q1015 PA3249 DA5600 T02890036
Conditions at: OAKN (KANDAHAR INTL AR, AF) observed 0856 UTC 19 April 2019
Temperature: 28.9°C (84°F)
Dewpoint: 3.6°C (38°F) [RH = 20%]
Pressure (altimeter): 29.97 inches Hg (1015.0 mb)
[Sea-level pressure: 1010.2 mb]
Winds: from the SW (230 degrees) at 7 MPH (6 knots; 3.1 m/s)
Visibility: 6 or more miles (10+ km)
Ceiling: at least 12,000 feet AGL
Clouds: scattered clouds at 25000 feet AGL
Weather: no significant weather observed at this time

METAR text: OAKN 190755Z 25005KT 9999 FEW250 28/06 A3000 RMK AO2A SLP113 WND DATA ESTMD Q1016 PA3226 DA5464 T02790062
Conditions at: OAKN (KANDAHAR INTL AR, AF) observed 0755 UTC 19 April 2019
Temperature: 27.9°C (82°F)
Dewpoint: 6.2°C (43°F) [RH = 25%]
Pressure (altimeter): 30.00 inches Hg (1016.0 mb)
[Sea-level pressure: 1011.3 mb]
Winds: from the WSW (250 degrees) at 6 MPH (5 knots; 2.6 m/s)
Visibility: 6 or more miles (10+ km)
Ceiling: at least 12,000 feet AGL
Clouds: few clouds at 25000 feet AGL
Weather: no significant weather observed at this time

METAR text: OAKN 190556Z 12003KT 9999 CLR 26/06 A3004 RMK AO2A SLP127 WND DATA ESTMD T02550063 Q1017 PA3187 DA5138 10258 20147 50005
Conditions at: OAKN (KANDAHAR INTL AR, AF) observed 0556 UTC 19 April 2019
Temperature: 25.5°C (78°F)
Dewpoint: 6.3°C (43°F) [RH = 29%]
Pressure (altimeter): 30.04 inches Hg (1017.4 mb)
[Sea-level pressure: 1012.7 mb]
Winds: from the ESE (120 degrees) at 3 MPH (3 knots; 1.5 m/s)
Visibility: 6 or more miles (10+ km)
Ceiling: at least 12,000 feet AGL
Clouds: sky clear below 12,000 feet AGL
Weather: no significant weather observed at this time

METAR text: OAKN 190456Z 19002KT 9999 CLR 25/08 A3005 RMK AO2A SLP130 WND DATA ESTMD Q1017 PA3179 DA5049 T02460077
Conditions at: OAKN (KANDAHAR INTL AR, AF) observed 0456 UTC 19 April 2019
Temperature: 24.6°C (76°F)
Dewpoint: 7.7°C (46°F) [RH = 34%]
Pressure (altimeter): 30.05 inches Hg (1017.7 mb)
[Sea-level pressure: 1013.0 mb]
Winds: from the S (190 degrees) at 2 MPH (2 knots; 1.0 m/s)
Visibility: 6 or more miles (10+ km)
Ceiling: at least 12,000 feet AGL
Clouds: sky clear below 12,000 feet AGL
Weather: no significant weather observed at this time

METAR text: OAKN 190358Z 03002KT 9999 CLR 21/10 A3004 RMK AO2A SLP128 WND DATA ESTMD Q1017 PA3189 DA4618 T02110096
Conditions at: OAKN (KANDAHAR INTL AR, AF) observed 0358 UTC 19 April 2019
Temperature: 21.1°C (70°F)
Dewpoint: 9.6°C (49°F) [RH = 48%]
Pressure (altimeter): 30.04 inches Hg (1017.4 mb)
[Sea-level pressure: 1012.8 mb]
Winds: from the NNE (30 degrees) at 2 MPH (2 knots; 1.0 m/s)
Visibility: 6 or more miles (10+ km)
Ceiling: at least 12,000 feet AGL
Clouds: sky clear below 12,000 feet AGL
Weather: no significant weather observed at this time

METAR text: OAKN 190256Z 00000KT 9999 CLR 18/10 A3002 RMK AO2A SLP125 WND DATA ESTMD Q1017 PA3200 DA4269 T01760104 52012
Conditions at: OAKN (KANDAHAR INTL AR, AF) observed 0256 UTC 19 April 2019
Temperature: 17.6°C (64°F)
Dewpoint: 10.4°C (51°F) [RH = 63%]
Pressure (altimeter): 30.02 inches Hg (1016.7 mb)
[Sea-level pressure: 1012.5 mb]
Winds: calm
Visibility: 6 or more miles (10+ km)
Ceiling: at least 12,000 feet AGL
Clouds: sky clear below 12,000 feet AGL
Weather: no significant weather observed at this time

METAR text: OAKN 190156Z 03003KT 9999 CLR 16/11 A3001 RMK AO2A SLP121 WND DATA ESTMD Q1016 PA3212 DA4124 T01610105
Conditions at: OAKN (KANDAHAR INTL AR, AF) observed 0156 UTC 19 April 2019
Temperature: 16.1°C (61°F)
Dewpoint: 10.5°C (51°F) [RH = 69%]
Pressure (altimeter): 30.01 inches Hg (1016.3 mb)
[Sea-level pressure: 1012.1 mb]
Winds: from the NNE (30 degrees) at 3 MPH (3 knots; 1.5 m/s)
Visibility: 6 or more miles (10+ km)
Ceiling: at least 12,000 feet AGL
Clouds: sky clear below 12,000 feet AGL
Weather: no significant weather observed at this time

METAR text: OAKN 190056Z 06002KT 9999 CLR 15/10 A3000 RMK AO2A SLP116 WND DATA ESTMD Q1016 PA3223 DA4026 T01520104
Conditions at: OAKN (KANDAHAR INTL AR, AF) observed 0056 UTC 19 April 2019
Temperature: 15.2°C (59°F)
Dewpoint: 10.4°C (51°F) [RH = 73%]
Pressure (altimeter): 30.00 inches Hg (1016.0 mb)
[Sea-level pressure: 1011.6 mb]
Winds: from the ENE (60 degrees) at 2 MPH (2 knots; 1.0 m/s)
Visibility: 6 or more miles (10+ km)
Ceiling: at least 12,000 feet AGL
Clouds: sky clear below 12,000 feet AGL
Weather: no significant weather observed at this time

METAR text: OAKN 182356Z 00000KT 9999 CLR 15/11 A2999 RMK AO2A SLP113 WND DATA ESTMD Q1016 PA3231 DA4051 T01530113
Conditions at: OAKN (KANDAHAR INTL AR, AF) observed 2356 UTC 18 April 2019
Temperature: 15.3°C (60°F)
Dewpoint: 11.3°C (52°F) [RH = 77%]
Pressure (altimeter): 29.99 inches Hg (1015.7 mb)
[Sea-level pressure: 1011.3 mb]
Winds: calm
Visibility: 6 or more miles (10+ km)
Ceiling: at least 12,000 feet AGL
Clouds: sky clear below 12,000 feet AGL
Weather: no significant weather observed at this time

METAR text: OAKN 182256Z 00000KT 9999 CLR 16/11 A2999 RMK AO2A SLP113 WND DATA ESTMD Q1016 PA3230 DA4118 T01590114 10209 20158
Conditions at: OAKN (KANDAHAR INTL AR, AF) observed 2256 UTC 18 April 2019
Temperature: 15.9°C (61°F)
Dewpoint: 11.4°C (53°F) [RH = 75%]
Pressure (altimeter): 29.99 inches Hg (1015.7 mb)
[Sea-level pressure: 1011.3 mb]
Winds: calm
Visibility: 6 or more miles (10+ km)
Ceiling: at least 12,000 feet AGL
Clouds: sky clear below 12,000 feet AGL
Weather: no significant weather observed at this time

METAR text: OAKN 182156Z 05003KT 9999 CLR 16/11 A3000 RMK AO2A SLP116 WND DATA ESTMD Q1016 PA3217 DA4158 T01640112
Conditions at: OAKN (KANDAHAR INTL AR, AF) observed 2156 UTC 18 April 2019
Temperature: 16.4°C (62°F)
Dewpoint: 11.2°C (52°F) [RH = 71%]
Pressure (altimeter): 30.00 inches Hg (1016.0 mb)
[Sea-level pressure: 1011.6 mb]
Winds: from the NE (50 degrees) at 3 MPH (3 knots; 1.5 m/s)
Visibility: 6 or more miles (10+ km)
Ceiling: at least 12,000 feet AGL
Clouds: sky clear below 12,000 feet AGL
Weather: no significant weather observed at this time

METAR text: OAKN 182056Z 07004KT 9999 CLR 18/10 A3002 RMK AO2A SLP121 WND DATA ESTMD Q1017 PA3208 DA4297 T01770103 58013
Conditions at: OAKN (KANDAHAR INTL AR, AF) observed 2056 UTC 18 April 2019
Temperature: 17.7°C (64°F)
Dewpoint: 10.3°C (51°F) [RH = 62%]
Pressure (altimeter): 30.02 inches Hg (1016.7 mb)
[Sea-level pressure: 1012.1 mb]
Winds: from the ENE (70 degrees) at 5 MPH (4 knots; 2.1 m/s)
Visibility: 6 or more miles (10+ km)
Ceiling: at least 12,000 feet AGL
Clouds: sky clear below 12,000 feet AGL
Weather: no significant weather observed at this time

METAR text: OAKN 181959Z 00000KT 9999 CLR 19/09 A3004 RMK AO2A SLP128 WND DATA ESTMD Q1018 PA3186 DA4394 T01880094
Conditions at: OAKN (KANDAHAR INTL AR, AF) observed 1959 UTC 18 April 2019
Temperature: 18.8°C (66°F)
Dewpoint: 9.4°C (49°F) [RH = 54%]
Pressure (altimeter): 30.04 inches Hg (1017.4 mb)
[Sea-level pressure: 1012.8 mb]
Winds: calm
Visibility: 6 or more miles (10+ km)
Ceiling: at least 12,000 feet AGL
Clouds: sky clear below 12,000 feet AGL
Weather: no significant weather observed at this time

METAR text: OAKN 181859Z 15002KT 9999 CLR 20/08 A3005 RMK AO2A SLP132 WND DATA ESTMD Q1018 PA3177 DA4494 T01970084
Conditions at: OAKN (KANDAHAR INTL AR, AF) observed 1859 UTC 18 April 2019
Temperature: 19.7°C (67°F)
Dewpoint: 8.4°C (47°F) [RH = 48%]
Pressure (altimeter): 30.05 inches Hg (1017.7 mb)
[Sea-level pressure: 1013.2 mb]
Winds: from the SSE (150 degrees) at 2 MPH (2 knots; 1.0 m/s)
Visibility: 6 or more miles (10+ km)
Ceiling: at least 12,000 feet AGL
Clouds: sky clear below 12,000 feet AGL
Weather: no significant weather observed at this time

METAR text: OAKN 181757Z 00000KT 9999 FEW250 21/08 A3006 RMK AO2A SLP135 WND DATA ESTMD Q1018 PA3170 DA4602 T02080082 10265 20202 52008
Conditions at: OAKN (KANDAHAR INTL AR, AF) observed 1757 UTC 18 April 2019
Temperature: 20.8°C (69°F)
Dewpoint: 8.2°C (47°F) [RH = 44%]
Pressure (altimeter): 30.06 inches Hg (1018.0 mb)
[Sea-level pressure: 1013.5 mb]
Winds: calm
Visibility: 6 or more miles (10+ km)
Ceiling: at least 12,000 feet AGL
Clouds: few clouds at 25000 feet AGL
Weather: no significant weather observed at this time

METAR text: OAKN 181659Z 00000KT 9999 FEW250 20/08 A3006 RMK AO2A SLP139 WND DATA ESTMD Q1018 PA3171 DA4553 T02040083
Conditions at: OAKN (KANDAHAR INTL AR, AF) observed 1659 UTC 18 April 2019
Temperature: 20.4°C (69°F)
Dewpoint: 8.3°C (47°F) [RH = 46%]
Pressure (altimeter): 30.06 inches Hg (1018.0 mb)
[Sea-level pressure: 1013.9 mb]
Winds: calm
Visibility: 6 or more miles (10+ km)
Ceiling: at least 12,000 feet AGL
Clouds: few clouds at 25000 feet AGL
Weather: no significant weather observed at this time

METAR text: OAKN 181556Z 26006KT 9999 CLR 23/06 A3004 RMK AO2A SLP130 WND DATA ESTMD Q1017 PA3194 DA4928 T02250063
Conditions at: OAKN (KANDAHAR INTL AR, AF) observed 1556 UTC 18 April 2019
Temperature: 22.5°C (72°F)
Dewpoint: 6.3°C (43°F) [RH = 35%]
Pressure (altimeter): 30.04 inches Hg (1017.4 mb)
[Sea-level pressure: 1013.0 mb]
Winds: from the W (260 degrees) at 7 MPH (6 knots; 3.1 m/s)
Visibility: 6 or more miles (10+ km)
Ceiling: at least 12,000 feet AGL
Clouds: sky clear below 12,000 feet AGL
Weather: no significant weather observed at this time

METAR text: OAKN 181458Z 00000KT 9999 CLR 23/08 A3003 RMK AO2A SLP128 WND DATA ESTMD Q1017 PA3194 DA4854 T02270078
Conditions at: OAKN (KANDAHAR INTL AR, AF) observed 1458 UTC 18 April 2019
Temperature: 22.7°C (73°F)
Dewpoint: 7.8°C (46°F) [RH = 38%]
Pressure (altimeter): 30.03 inches Hg (1017.0 mb)
[Sea-level pressure: 1012.8 mb]
Winds: calm
Visibility: 6 or more miles (10+ km)
Ceiling: at least 12,000 feet AGL
Clouds: sky clear below 12,000 feet AGL
Weather: no significant weather observed at this time

METAR text: OAKN 181357Z 00000KT 9999 CLR 25/05 A3002 RMK AO2A SLP125 WND DATA ESTMD Q1017 PA3204 DA5083 T02470050
Conditions at: OAKN (KANDAHAR INTL AR, AF) observed 1357 UTC 18 April 2019
Temperature: 24.7°C (76°F)
Dewpoint: 5.0°C (41°F) [RH = 28%]
Pressure (altimeter): 30.02 inches Hg (1016.7 mb)
[Sea-level pressure: 1012.5 mb]
Winds: calm
Visibility: 6 or more miles (10+ km)
Ceiling: at least 12,000 feet AGL
Clouds: sky clear below 12,000 feet AGL
Weather: no significant weather observed at this time

METAR text: OAKN 181257Z VRB04KT 9999 CLR 26/03 A3001 RMK AO2A SLP121 WND DATA ESTMD Q1017 PA3212 DA5256 T02620031
Conditions at: OAKN (KANDAHAR INTL AR, AF) observed 1257 UTC 18 April 2019
Temperature: 26.2°C (79°F)
Dewpoint: 3.1°C (38°F) [RH = 22%]
Pressure (altimeter): 30.01 inches Hg (1016.3 mb)
[Sea-level pressure: 1012.1 mb]
Winds: variable direction winds at 5 MPH (4 knots; 2.1 m/s)
Visibility: 6 or more miles (10+ km)
Ceiling: at least 12,000 feet AGL
Clouds: sky clear below 12,000 feet AGL
Weather: no significant weather observed at this time

METAR text: OAKN 181155Z 00000KT 9999 CLR 26/05 A3001 RMK AO2A SLP121 WND DATA ESTMD Q1017 PA3211 DA5239 T02640052 10266 20222
Conditions at: OAKN (KANDAHAR INTL AR, AF) observed 1155 UTC 18 April 2019
Temperature: 26.4°C (80°F)
Dewpoint: 5.2°C (41°F) [RH = 26%]
Pressure (altimeter): 30.01 inches Hg (1016.3 mb)
[Sea-level pressure: 1012.1 mb]
Winds: calm
Visibility: 6 or more miles (10+ km)
Ceiling: at least 12,000 feet AGL
Clouds: sky clear below 12,000 feet AGL
Weather: no significant weather observed at this time

METAR text: OAKN 181055Z VRB03KT 9999 CLR 26/05 A3001 RMK AO2A SLP121 WND DATA ESTMD Q1017 PA3222 DA5346 T02610052
Conditions at: OAKN (KANDAHAR INTL AR, AF) observed 1055 UTC 18 April 2019
Temperature: 26.1°C (79°F)
Dewpoint: 5.2°C (41°F) [RH = 26%]
Pressure (altimeter): 30.01 inches Hg (1016.3 mb)
[Sea-level pressure: 1012.1 mb]
Winds: variable direction winds at 3 MPH (3 knots; 1.5 m/s)
Visibility: 6 or more miles (10+ km)
Ceiling: at least 12,000 feet AGL
Clouds: sky clear below 12,000 feet AGL
Weather: no significant weather observed at this time

METAR text: OAKN 180957Z 00000KT 9999 CLR 26/05 A3003 RMK AO2A SLP128 WND DATA ESTMD Q1017 PA3194 DA5200 T02580049
Conditions at: OAKN (KANDAHAR INTL AR, AF) observed 0957 UTC 18 April 2019
Temperature: 25.8°C (78°F)
Dewpoint: 4.9°C (41°F) [RH = 26%]
Pressure (altimeter): 30.03 inches Hg (1017.0 mb)
[Sea-level pressure: 1012.8 mb]
Winds: calm
Visibility: 6 or more miles (10+ km)
Ceiling: at least 12,000 feet AGL
Clouds: sky clear below 12,000 feet AGL
Weather: no significant weather observed at this time

METAR text: OAKN 180855Z 26008KT 9999 FEW250 26/05 A3005 RMK AO2A SLP133 WND DATA ESTMD Q1017 PA3174 DA5109 T02560051 57018
Conditions at: OAKN (KANDAHAR INTL AR, AF) observed 0855 UTC 18 April 2019
Temperature: 25.6°C (78°F)
Dewpoint: 5.1°C (41°F) [RH = 27%]
Pressure (altimeter): 30.05 inches Hg (1017.7 mb)
[Sea-level pressure: 1013.3 mb]
Winds: from the W (260 degrees) at 9 MPH (8 knots; 4.1 m/s)
Visibility: 6 or more miles (10+ km)
Ceiling: at least 12,000 feet AGL
Clouds: few clouds at 25000 feet AGL
Weather: no significant weather observed at this time

METAR text: OAKN 180755Z 26006KT 9999 FEW250 25/07 A3007 RMK AO2A SLP140 WND DATA ESTMD Q1018 PA3158 DA5051 T02490073
Conditions at: OAKN (KANDAHAR INTL AR, AF) observed 0755 UTC 18 April 2019
Temperature: 24.9°C (77°F)
Dewpoint: 7.3°C (45°F) [RH = 32%]
Pressure (altimeter): 30.07 inches Hg (1018.4 mb)
[Sea-level pressure: 1014.0 mb]
Winds: from the W (260 degrees) at 7 MPH (6 knots; 3.1 m/s)
Visibility: 6 or more miles (10+ km)
Ceiling: at least 12,000 feet AGL
Clouds: few clouds at 25000 feet AGL
Weather: no significant weather observed at this time

METAR text: OAKN 180655Z 19005KT 9999 FEW200 24/08 A3010 RMK AO2A SLP151 WND DATA ESTMD Q1019 PA3135 DA4935 T02420076
Conditions at: OAKN (KANDAHAR INTL AR, AF) observed 0655 UTC 18 April 2019
Temperature: 24.2°C (76°F)
Dewpoint: 7.6°C (46°F) [RH = 35%]
Pressure (altimeter): 30.10 inches Hg (1019.4 mb)
[Sea-level pressure: 1015.1 mb]
Winds: from the S (190 degrees) at 6 MPH (5 knots; 2.6 m/s)
Visibility: 6 or more miles (10+ km)
Ceiling: at least 12,000 feet AGL
Clouds: few clouds at 20000 feet AGL
Weather: no significant weather observed at this time

Forecast for: OAKN (KANDAHAR INTL AR, AF)
Text: TAF OAKN 191500Z 1915/2021 VRB06KT 9999 FEW200 QNH2987INS
Forecast period: 1500 UTC 19 April 2019 to 0800 UTC 20 April 2019
Forecast type: FROM: standard forecast or significant change
Winds: variable direction winds at 7 MPH (6 knots; 3.1 m/s)
Visibility: 6 or more miles 10+ km)
Ceiling: at least 12,000 feet AGL
Clouds: few clouds at 20000 feet AGL
Weather: no significant weather forecast for this period
Text: BECMG 2008/2009 30009KT 9999 SCT140 QNH2979INS
Forecast period: 0800 to 1400 UTC 20 April 2019
Forecast type: BECOMING: Conditions expected to become as follows by 0900 UTC 20 April 2019
Winds: from the WNW (300 degrees) at 10 MPH (9 knots; 4.6 m/s)
Visibility: 6 or more miles 10+ km)
Ceiling: at least 12,000 feet AGL
Clouds: scattered clouds at 14000 feet AGL
Weather: no significant weather forecast for this period
Text: BECMG 2014/2015 VRB06KT 9999 SKC QNH2982INS TX32/2011Z TN15/2001Z
Forecast period: 1400 to 2100 UTC 20 April 2019
Forecast type: BECOMING: Conditions expected to become as follows by 1500 UTC 20 April 2019
Winds: variable direction winds at 7 MPH (6 knots; 3.1 m/s)
Visibility: 6 or more miles 10+ km)
Clouds: clear skies
Weather: no significant weather forecast for this period